createdAt,value
2019-02-12T00:02:04.467Z,100.00
2019-02-12T00:07:02.661Z,100.00
2019-02-12T00:11:58.644Z,100.00
2019-02-12T00:16:54.558Z,100.00
2019-02-12T00:21:50.442Z,100.00
2019-02-12T00:26:46.406Z,100.00
2019-02-12T00:31:42.243Z,100.00
2019-02-12T00:36:42.914Z,100.00
2019-02-12T00:41:43.123Z,100.00
2019-02-12T00:46:44.785Z,100.00
2019-02-12T00:51:40.824Z,100.00
2019-02-12T00:56:36.656Z,100.00
2019-02-12T01:01:38.760Z,100.00
2019-02-12T01:06:34.593Z,100.00
2019-02-12T01:11:37.951Z,100.00
2019-02-12T01:16:34.082Z,100.00
2019-02-12T01:21:32.995Z,100.00
2019-02-12T01:26:28.801Z,100.00
2019-02-12T01:31:26.861Z,100.00
2019-02-12T01:36:23.092Z,100.00
2019-02-12T01:41:18.972Z,100.00
2019-02-12T01:46:14.922Z,100.00
2019-02-12T01:51:11.003Z,100.00
2019-02-12T01:56:06.914Z,100.00
2019-02-12T02:01:02.914Z,100.00
2019-02-12T02:05:58.814Z,100.00
2019-02-12T02:10:56.873Z,100.00
2019-02-12T02:15:52.793Z,100.00
2019-02-12T02:20:48.854Z,100.00
2019-02-12T02:25:44.795Z,100.00
2019-02-12T02:30:47.853Z,100.00
2019-02-12T02:35:43.581Z,100.00
2019-02-12T02:40:39.697Z,100.00
2019-02-12T02:45:35.833Z,100.00
2019-02-12T02:50:31.959Z,100.00
2019-02-12T02:55:29.008Z,100.00
2019-02-12T03:00:24.864Z,100.00
2019-02-12T03:05:21.035Z,100.00
2019-02-12T03:10:18.019Z,100.00
2019-02-12T03:15:16.003Z,100.00
2019-02-12T03:20:12.777Z,100.00
2019-02-12T03:25:09.289Z,100.00
2019-02-12T03:30:06.616Z,100.00
2019-02-12T03:35:02.563Z,100.00
2019-02-12T03:39:58.371Z,100.00
2019-02-12T03:44:54.391Z,100.00
2019-02-12T03:49:52.618Z,100.00
2019-02-12T03:54:48.719Z,100.00
2019-02-12T03:59:44.890Z,100.00
2019-02-12T04:04:40.961Z,100.00
2019-02-12T04:09:37.126Z,100.00
2019-02-12T04:14:32.942Z,100.00
2019-02-12T04:19:28.778Z,100.00
2019-02-12T04:24:24.681Z,100.00
2019-02-12T04:29:20.663Z,100.00
2019-02-12T04:34:16.591Z,100.00
2019-02-12T04:39:12.559Z,100.00
2019-02-12T04:44:08.464Z,100.00
2019-02-12T04:49:04.432Z,100.00
2019-02-12T04:54:02.641Z,100.00
2019-02-12T04:58:58.601Z,100.00
2019-02-12T05:10:41.141Z,100.00
2019-02-12T05:15:37.069Z,100.00
2019-02-12T05:20:36.017Z,100.00
2019-02-12T05:37:36.687Z,100.00
2019-02-12T05:43:31.189Z,100.00
2019-02-12T05:54:31.774Z,100.00
2019-02-12T05:59:36.738Z,100.00
2019-02-12T06:04:32.676Z,100.00
2019-02-12T06:15:30.620Z,100.00
2019-02-12T06:20:26.572Z,100.00
2019-02-12T06:25:22.514Z,100.00
2019-02-12T06:30:36.359Z,100.00
2019-02-12T06:35:34.954Z,100.00
2019-02-12T06:40:30.915Z,100.00
2019-02-12T06:45:35.925Z,100.00
2019-02-12T06:50:31.786Z,100.00
2019-02-12T06:55:27.727Z,100.00
2019-02-12T07:00:23.629Z,100.00
2019-02-12T07:05:19.581Z,100.00
2019-02-12T07:10:26.131Z,100.00
2019-02-12T07:15:40.159Z,100.00
2019-02-12T07:21:20.562Z,100.00
2019-02-12T07:27:24.048Z,100.00
2019-02-12T07:32:47.467Z,100.00
2019-02-12T07:38:41.087Z,100.00
2019-02-12T07:44:40.265Z,100.00
2019-02-12T07:50:26.536Z,100.00
2019-02-12T07:56:25.674Z,100.00
2019-02-12T08:02:13.505Z,100.00
2019-02-12T08:07:49.000Z,100.00
2019-02-12T08:13:34.365Z,99.33
2019-02-12T08:19:32.443Z,98.41
2019-02-12T08:25:21.066Z,95.56
2019-02-12T08:31:08.641Z,92.77
2019-02-12T08:36:50.001Z,90.81
2019-02-12T08:42:47.494Z,89.92
2019-02-12T08:48:45.768Z,91.11
2019-02-12T08:54:40.353Z,89.61
2019-02-12T09:00:21.951Z,86.45
2019-02-12T09:06:24.058Z,82.08
2019-02-12T09:12:46.903Z,82.10
2019-02-12T09:18:27.840Z,81.26
2019-02-12T09:24:43.031Z,83.88
2019-02-12T09:30:29.755Z,80.57
2019-02-12T09:36:15.524Z,81.72
2019-02-12T09:42:20.959Z,77.85
2019-02-12T09:48:17.324Z,83.04
2019-02-12T09:54:23.297Z,77.44
2019-02-12T10:00:10.054Z,79.51
2019-02-12T10:05:58.384Z,78.38
2019-02-12T10:11:35.286Z,83.15
2019-02-12T10:17:04.057Z,81.60
2019-02-12T10:22:54.507Z,81.40
2019-02-12T10:29:09.832Z,82.79
2019-02-12T10:34:05.777Z,80.81
2019-02-12T10:39:03.707Z,80.27
2019-02-12T10:43:59.361Z,84.52
2019-02-12T10:48:57.006Z,80.66
2019-02-12T10:53:53.038Z,77.86
2019-02-12T10:58:50.064Z,79.07
2019-02-12T11:03:47.138Z,77.55
2019-02-12T11:08:45.085Z,74.72
2019-02-12T11:13:41.029Z,79.13
2019-02-12T11:18:38.756Z,76.45
2019-02-12T11:23:37.919Z,75.37
2019-02-12T11:28:35.735Z,74.55
2019-02-12T11:33:31.684Z,73.27
2019-02-12T11:38:27.668Z,79.86
2019-02-12T11:43:23.688Z,73.71
2019-02-12T11:48:19.521Z,74.13
2019-02-12T11:53:15.477Z,70.87
2019-02-12T11:58:11.295Z,72.76
2019-02-12T12:03:07.355Z,72.23
2019-02-12T12:08:03.320Z,74.23
2019-02-12T12:13:01.000Z,74.38
2019-02-12T12:17:57.045Z,72.45
2019-02-12T12:22:53.059Z,70.08
2019-02-12T12:27:49.244Z,71.48
2019-02-12T12:32:45.066Z,72.39
2019-02-12T12:37:40.914Z,69.16
2019-02-12T12:42:37.094Z,73.55
2019-02-12T12:47:33.038Z,66.78
2019-02-12T12:52:28.932Z,68.68
2019-02-12T12:57:24.847Z,66.40
2019-02-12T13:02:20.896Z,69.36
2019-02-12T13:07:16.854Z,68.77
2019-02-12T13:12:12.759Z,67.57
2019-02-12T13:17:08.704Z,67.67
2019-02-12T13:22:04.538Z,70.85
2019-02-12T13:27:00.491Z,71.16
2019-02-12T13:31:56.358Z,65.82
2019-02-12T13:36:52.432Z,72.31
2019-02-12T13:41:48.303Z,69.09
2019-02-12T13:46:44.260Z,70.40
2019-02-12T13:51:40.106Z,68.40
2019-02-12T13:56:37.864Z,65.24
2019-02-12T14:01:33.823Z,62.50
2019-02-12T14:06:29.802Z,63.36
2019-02-12T14:11:25.605Z,61.28
2019-02-12T14:16:25.487Z,66.98
2019-02-12T14:21:21.353Z,63.24
2019-02-12T14:26:17.379Z,59.05
2019-02-12T14:31:13.282Z,58.89
2019-02-12T14:36:09.181Z,62.13
2019-02-12T14:41:04.997Z,62.72
2019-02-12T14:46:00.864Z,62.63
2019-02-12T14:50:57.064Z,64.58
2019-02-12T14:55:53.022Z,59.36
2019-02-12T15:00:48.938Z,62.87
2019-02-12T15:05:45.007Z,61.26
2019-02-12T15:10:41.767Z,60.31
2019-02-12T15:15:37.903Z,63.86
2019-02-12T15:20:34.133Z,61.89
2019-02-12T15:25:41.799Z,62.01
2019-02-12T15:30:48.959Z,60.31
2019-02-12T15:35:59.401Z,61.26
2019-02-12T15:46:20.562Z,62.40
2019-02-12T15:51:26.587Z,61.91
2019-02-12T15:56:25.350Z,63.96
2019-02-12T16:01:24.281Z,67.72
2019-02-12T16:06:40.179Z,69.21
2019-02-12T16:12:02.008Z,67.52
2019-02-12T16:17:20.479Z,77.27
2019-02-12T16:23:10.736Z,82.09
2019-02-12T16:28:16.148Z,88.32
2019-02-12T16:33:50.259Z,88.77
2019-02-12T16:38:55.758Z,87.11
2019-02-12T16:43:50.829Z,95.66
2019-02-12T16:48:49.744Z,96.25
2019-02-12T16:53:53.764Z,95.50
2019-02-12T16:59:06.682Z,96.80
2019-02-12T17:04:13.796Z,99.49
2019-02-12T17:09:10.528Z,92.46
2019-02-12T17:14:39.720Z,80.04
2019-02-12T17:19:48.938Z,94.75
2019-02-12T17:31:13.545Z,85.65
2019-02-12T17:36:11.435Z,99.27
2019-02-12T17:47:46.154Z,94.41
2019-02-12T18:23:39.678Z,97.23
2019-02-12T18:52:52.939Z,97.02
2019-02-12T18:58:37.041Z,100.00
2019-02-12T19:55:33.950Z,94.23
2019-02-12T20:01:08.370Z,100.00
2019-02-12T20:11:46.463Z,91.62
2019-02-12T20:16:45.798Z,95.66
2019-02-12T20:34:34.663Z,100.00
2019-02-12T20:40:21.243Z,88.43
2019-02-12T20:45:17.492Z,94.87
2019-02-12T20:50:14.515Z,96.50
2019-02-12T20:55:11.007Z,100.00
2019-02-12T21:00:23.562Z,92.56
2019-02-12T21:05:22.474Z,100.00
2019-02-12T21:10:44.717Z,100.00
2019-02-12T21:15:58.612Z,97.78
2019-02-12T21:21:14.153Z,96.67
2019-02-12T21:26:26.075Z,98.97
2019-02-12T21:31:41.330Z,100.00
2019-02-12T21:37:42.547Z,100.00
2019-02-12T21:43:05.228Z,100.00
2019-02-12T21:48:21.571Z,100.00
2019-02-12T21:59:58.503Z,100.00
2019-02-12T22:05:43.642Z,100.00
2019-02-12T22:11:24.381Z,100.00
2019-02-12T22:16:36.126Z,100.00
2019-02-12T22:22:06.425Z,100.00
2019-02-12T22:27:06.321Z,100.00
2019-02-12T22:32:02.157Z,100.00
2019-02-12T22:36:58.051Z,100.00
2019-02-12T22:42:03.533Z,100.00
2019-02-12T22:47:56.143Z,100.00
2019-02-12T22:52:57.925Z,100.00
2019-02-12T22:58:04.661Z,100.00
2019-02-12T23:03:14.182Z,100.00
2019-02-12T23:13:43.091Z,100.00
2019-02-12T23:19:26.995Z,100.00
2019-02-12T23:24:48.068Z,100.00
2019-02-12T23:30:01.826Z,100.00
2019-02-12T23:35:26.763Z,100.00
2019-02-12T23:40:34.676Z,100.00
2019-02-12T23:45:37.606Z,100.00
2019-02-12T23:50:54.884Z,100.00
2019-02-12T23:56:03.577Z,100.00
